sensor_id;sensor_type;location;lat;lon;timestamp;pressure;altitude;pressure_sealevel;temperature;humidity
67931;BME280;63902;52.000;5.954;2023-06-04T00:00:49;101812.66;;;12.32;53.77
67931;BME280;63902;52.000;5.954;2023-06-04T00:01:50;101809.22;;;12.30;53.68
67931;BME280;63902;52.000;5.954;2023-06-04T00:02:50;101811.03;;;12.28;53.83
67931;BME280;63902;52.000;5.954;2023-06-04T00:03:51;101808.50;;;12.25;53.93
67931;BME280;63902;52.000;5.954;2023-06-04T00:04:51;101796.38;;;12.16;53.84
67931;BME280;63902;52.000;5.954;2023-06-04T00:05:52;101810.28;;;12.24;54.11
67931;BME280;63902;52.000;5.954;2023-06-04T00:06:54;101797.31;;;12.14;54.37
67931;BME280;63902;52.000;5.954;2023-06-04T00:07:54;101806.91;;;12.19;54.18
67931;BME280;63902;52.000;5.954;2023-06-04T00:08:55;101805.09;;;12.20;54.81
67931;BME280;63902;52.000;5.954;2023-06-04T00:09:55;101803.38;;;12.19;54.16
67931;BME280;63902;52.000;5.954;2023-06-04T00:10:56;101812.22;;;12.19;54.67
67931;BME280;63902;52.000;5.954;2023-06-04T00:11:57;101809.59;;;12.18;55.01
67931;BME280;63902;52.000;5.954;2023-06-04T00:12:58;101802.56;;;12.15;54.88
67931;BME280;63902;52.000;5.954;2023-06-04T00:13:58;101804.38;;;12.15;54.71
67931;BME280;63902;52.000;5.954;2023-06-04T00:14:59;101784.38;;;12.03;54.60
67931;BME280;63902;52.000;5.954;2023-06-04T00:15:59;101804.47;;;12.12;54.36
67931;BME280;63902;52.000;5.954;2023-06-04T00:16:59;101796.56;;;12.10;55.14
67931;BME280;63902;52.000;5.954;2023-06-04T00:18:00;101801.88;;;12.10;54.61
67931;BME280;63902;52.000;5.954;2023-06-04T00:19:00;101797.47;;;12.09;54.53
67931;BME280;63902;52.000;5.954;2023-06-04T00:20:01;101800.22;;;12.06;54.51
67931;BME280;63902;52.000;5.954;2023-06-04T00:21:02;101802.88;;;12.06;54.54
67931;BME280;63902;52.000;5.954;2023-06-04T00:22:04;101797.56;;;12.06;54.41
67931;BME280;63902;52.000;5.954;2023-06-04T00:23:05;101799.38;;;12.04;54.44
67931;BME280;63902;52.000;5.954;2023-06-04T00:24:05;101796.72;;;12.04;54.51
67931;BME280;63902;52.000;5.954;2023-06-04T00:25:06;101798.69;;;11.99;54.52
67931;BME280;63902;52.000;5.954;2023-06-04T00:26:07;101808.28;;;12.03;54.59
67931;BME280;63902;52.000;5.954;2023-06-04T00:27:08;101798.63;;;12.00;54.50
67931;BME280;63902;52.000;5.954;2023-06-04T00:28:09;101800.41;;;12.00;54.66
67931;BME280;63902;52.000;5.954;2023-06-04T00:29:09;101801.28;;;12.00;54.75
67931;BME280;63902;52.000;5.954;2023-06-04T00:30:10;101797.84;;;11.97;54.83
67931;BME280;63902;52.000;5.954;2023-06-04T00:31:11;101797.84;;;11.97;54.75
67931;BME280;63902;52.000;5.954;2023-06-04T00:32:12;101800.56;;;11.95;54.83
67931;BME280;63902;52.000;5.954;2023-06-04T00:33:12;101776.91;;;11.84;54.74
67931;BME280;63902;52.000;5.954;2023-06-04T00:34:12;101797.03;;;11.95;54.93
67931;BME280;63902;52.000;5.954;2023-06-04T00:35:13;101777.91;;;11.82;55.19
67931;BME280;63902;52.000;5.954;2023-06-04T00:36:14;101805.13;;;11.90;54.81
67931;BME280;63902;52.000;5.954;2023-06-04T00:37:15;101802.47;;;11.90;54.89
67931;BME280;63902;52.000;5.954;2023-06-04T00:38:16;101800.75;;;11.89;55.14
67931;BME280;63902;52.000;5.954;2023-06-04T00:39:16;101802.63;;;11.85;55.07
67931;BME280;63902;52.000;5.954;2023-06-04T00:40:17;101806.16;;;11.84;54.98
67931;BME280;63902;52.000;5.954;2023-06-04T00:41:17;101805.34;;;11.82;55.24
67931;BME280;63902;52.000;5.954;2023-06-04T00:42:18;101807.16;;;11.82;55.36
67931;BME280;63902;52.000;5.954;2023-06-04T00:43:18;101808.97;;;11.80;55.06
67931;BME280;63902;52.000;5.954;2023-06-04T00:44:19;101810.78;;;11.79;55.18
67931;BME280;63902;52.000;5.954;2023-06-04T00:45:19;101810.81;;;11.78;55.06
67931;BME280;63902;52.000;5.954;2023-06-04T00:46:20;101808.22;;;11.76;55.55
67931;BME280;63902;52.000;5.954;2023-06-04T00:47:20;101812.63;;;11.76;55.64
67931;BME280;63902;52.000;5.954;2023-06-04T00:48:21;101808.28;;;11.73;55.38
67931;BME280;63902;52.000;5.954;2023-06-04T00:49:22;101810.06;;;11.73;55.36
67931;BME280;63902;52.000;5.954;2023-06-04T00:50:22;101801.34;;;11.68;55.49
67931;BME280;63902;52.000;5.954;2023-06-04T00:51:23;101804.06;;;11.66;55.62
67931;BME280;63902;52.000;5.954;2023-06-04T00:52:25;101810.22;;;11.68;55.62
67931;BME280;63902;52.000;5.954;2023-06-04T00:53:26;101798.84;;;11.63;55.64
67931;BME280;63902;52.000;5.954;2023-06-04T00:54:26;101804.94;;;11.67;55.48
67931;BME280;63902;52.000;5.954;2023-06-04T00:55:26;101801.50;;;11.63;55.64
67931;BME280;63902;52.000;5.954;2023-06-04T00:56:27;101793.72;;;11.57;56.46
67931;BME280;63902;52.000;5.954;2023-06-04T00:57:27;101800.72;;;11.59;56.14
67931;BME280;63902;52.000;5.954;2023-06-04T00:58:28;101794.63;;;11.56;55.93
67931;BME280;63902;52.000;5.954;2023-06-04T00:59:29;101807.91;;;11.56;56.01
67931;BME280;63902;52.000;5.954;2023-06-04T01:00:32;101804.38;;;11.55;56.97
67931;BME280;63902;52.000;5.954;2023-06-04T01:01:37;101803.63;;;11.52;55.96
67931;BME280;63902;52.000;5.954;2023-06-04T01:02:41;101808.88;;;11.53;56.21
67931;BME280;63902;52.000;5.954;2023-06-04T01:03:46;101801.81;;;11.52;56.64
67931;BME280;63902;52.000;5.954;2023-06-04T01:04:53;101807.16;;;11.51;56.17
67931;BME280;63902;52.000;5.954;2023-06-04T01:06:03;101812.56;;;11.48;56.28
67931;BME280;63902;52.000;5.954;2023-06-04T01:07:07;101813.53;;;11.45;56.03
67931;BME280;63902;52.000;5.954;2023-06-04T01:08:11;101811.91;;;11.41;55.91
67931;BME280;63902;52.000;5.954;2023-06-04T01:09:12;101807.53;;;11.38;56.73
67931;BME280;63902;52.000;5.954;2023-06-04T01:10:14;101805.81;;;11.37;56.43
67931;BME280;63902;52.000;5.954;2023-06-04T01:11:15;101803.19;;;11.36;56.00
67931;BME280;63902;52.000;5.954;2023-06-04T01:12:15;101807.66;;;11.34;56.83
67931;BME280;63902;52.000;5.954;2023-06-04T01:13:16;101801.53;;;11.32;56.57
67931;BME280;63902;52.000;5.954;2023-06-04T01:14:16;101806.84;;;11.32;56.48
67931;BME280;63902;52.000;5.954;2023-06-04T01:15:17;101794.53;;;11.29;56.42
67931;BME280;63902;52.000;5.954;2023-06-04T01:16:17;101798.97;;;11.29;56.41
67931;BME280;63902;52.000;5.954;2023-06-04T01:17:21;101804.34;;;11.26;56.26
67931;BME280;63902;52.000;5.954;2023-06-04T01:18:26;101804.34;;;11.26;56.48
67931;BME280;63902;52.000;5.954;2023-06-04T01:19:48;101807.97;;;11.23;56.77
67931;BME280;63902;52.000;5.954;2023-06-04T01:20:58;101809.81;;;11.21;56.92
67931;BME280;63902;52.000;5.954;2023-06-04T01:22:03;101798.41;;;11.17;56.74
67931;BME280;63902;52.000;5.954;2023-06-04T01:23:19;101802.78;;;11.18;56.41
67931;BME280;63902;52.000;5.954;2023-06-04T01:24:27;101805.47;;;11.17;56.64
67931;BME280;63902;52.000;5.954;2023-06-04T01:25:33;101799.56;;;11.07;56.47
67931;BME280;63902;52.000;5.954;2023-06-04T01:26:33;101808.13;;;11.17;56.60
67931;BME280;63902;52.000;5.954;2023-06-04T01:27:34;101806.41;;;11.16;56.71
67931;BME280;63902;52.000;5.954;2023-06-04T01:28:35;101802.91;;;11.14;56.48
67931;BME280;63902;52.000;5.954;2023-06-04T01:29:36;101802.09;;;11.12;56.74
67931;BME280;63902;52.000;5.954;2023-06-04T01:30:38;101805.66;;;11.11;57.00
67931;BME280;63902;52.000;5.954;2023-06-04T01:31:39;101804.81;;;11.09;56.87
67931;BME280;63902;52.000;5.954;2023-06-04T01:32:40;101800.53;;;11.03;56.36
67931;BME280;63902;52.000;5.954;2023-06-04T01:33:40;101804.09;;;11.04;56.50
67931;BME280;63902;52.000;5.954;2023-06-04T01:34:44;101798.78;;;11.04;57.04
67931;BME280;63902;52.000;5.954;2023-06-04T01:35:45;101800.72;;;10.97;57.31
67931;BME280;63902;52.000;5.954;2023-06-04T01:36:45;101792.81;;;10.95;57.10
67931;BME280;63902;52.000;5.954;2023-06-04T01:37:46;101808.56;;;11.02;56.96
67931;BME280;63902;52.000;5.954;2023-06-04T01:38:48;101803.25;;;11.02;56.94
67931;BME280;63902;52.000;5.954;2023-06-04T01:39:48;101792.75;;;10.97;56.90
67931;BME280;63902;52.000;5.954;2023-06-04T01:40:49;101802.41;;;11.00;56.73
67931;BME280;63902;52.000;5.954;2023-06-04T01:41:49;101797.97;;;11.00;56.61
67931;BME280;63902;52.000;5.954;2023-06-04T01:42:50;101797.09;;;11.00;56.61
67931;BME280;63902;52.000;5.954;2023-06-04T01:43:50;101795.38;;;10.98;56.70
67931;BME280;63902;52.000;5.954;2023-06-04T01:44:51;101799.75;;;11.00;57.26
67931;BME280;63902;52.000;5.954;2023-06-04T01:45:51;101785.75;;;10.94;57.16
67931;BME280;63902;52.000;5.954;2023-06-04T01:46:52;101798.03;;;10.98;56.93
67931;BME280;63902;52.000;5.954;2023-06-04T01:47:53;101798.03;;;10.98;57.21
67931;BME280;63902;52.000;5.954;2023-06-04T01:48:53;101799.75;;;11.00;56.90
67931;BME280;63902;52.000;5.954;2023-06-04T01:49:54;101799.75;;;11.00;57.29
67931;BME280;63902;52.000;5.954;2023-06-04T01:50:54;101789.16;;;11.00;57.65
67931;BME280;63902;52.000;5.954;2023-06-04T01:51:55;101798.84;;;11.01;57.06
67931;BME280;63902;52.000;5.954;2023-06-04T01:52:55;101797.09;;;11.00;57.62
67931;BME280;63902;52.000;5.954;2023-06-04T01:53:57;101773.69;;;10.83;57.04
67931;BME280;63902;52.000;5.954;2023-06-04T01:54:58;101798.06;;;10.97;57.04
67931;BME280;63902;52.000;5.954;2023-06-04T01:55:58;101801.56;;;10.97;57.33
67931;BME280;63902;52.000;5.954;2023-06-04T01:56:59;101803.44;;;10.95;57.30
67931;BME280;63902;52.000;5.954;2023-06-04T01:57:59;101804.38;;;10.93;57.17
67931;BME280;63902;52.000;5.954;2023-06-04T01:59:00;101804.41;;;10.91;57.55
67931;BME280;63902;52.000;5.954;2023-06-04T02:00:00;101799.97;;;10.92;57.47
67931;BME280;63902;52.000;5.954;2023-06-04T02:01:01;101807.06;;;10.91;57.34
67931;BME280;63902;52.000;5.954;2023-06-04T02:02:01;101798.22;;;10.91;57.67
67931;BME280;63902;52.000;5.954;2023-06-04T02:03:02;101800.88;;;10.91;57.55
67931;BME280;63902;52.000;5.954;2023-06-04T02:04:02;101799.25;;;10.87;57.73
67931;BME280;63902;52.000;5.954;2023-06-04T02:05:03;101793.19;;;10.82;57.35
67931;BME280;63902;52.000;5.954;2023-06-04T02:06:04;101799.25;;;10.85;57.59
67931;BME280;63902;52.000;5.954;2023-06-04T02:07:05;101798.44;;;10.83;57.34
67931;BME280;63902;52.000;5.954;2023-06-04T02:08:06;101795.84;;;10.82;57.35
67931;BME280;63902;52.000;5.954;2023-06-04T02:09:07;101797.72;;;10.77;57.54
67931;BME280;63902;52.000;5.954;2023-06-04T02:10:09;101800.41;;;10.75;57.53
67931;BME280;63902;52.000;5.954;2023-06-04T02:11:09;101796.97;;;10.71;57.92
67931;BME280;63902;52.000;5.954;2023-06-04T02:12:10;101794.31;;;10.71;57.80
67931;BME280;63902;52.000;5.954;2023-06-04T02:13:10;101799.72;;;10.67;58.43
67931;BME280;63902;52.000;5.954;2023-06-04T02:14:11;101799.72;;;10.67;57.99
67931;BME280;63902;52.000;5.954;2023-06-04T02:15:11;101804.19;;;10.66;58.62
67931;BME280;63902;52.000;5.954;2023-06-04T02:16:12;101795.44;;;10.63;58.03
67931;BME280;63902;52.000;5.954;2023-06-04T02:17:12;101804.22;;;10.65;58.22
67931;BME280;63902;52.000;5.954;2023-06-04T02:18:15;101801.56;;;10.65;58.64
67931;BME280;63902;52.000;5.954;2023-06-04T02:19:16;101810.44;;;10.64;58.14
67931;BME280;63902;52.000;5.954;2023-06-04T02:20:16;101806.06;;;10.61;58.29
67931;BME280;63902;52.000;5.954;2023-06-04T02:21:17;101800.81;;;10.60;59.26
67931;BME280;63902;52.000;5.954;2023-06-04T02:22:18;101802.56;;;10.61;58.26
67931;BME280;63902;52.000;5.954;2023-06-04T02:23:19;101779.84;;;10.50;58.37
67931;BME280;63902;52.000;5.954;2023-06-04T02:24:21;101792.16;;;10.53;58.20
67931;BME280;63902;52.000;5.954;2023-06-04T02:25:22;101802.72;;;10.55;58.31
67931;BME280;63902;52.000;5.954;2023-06-04T02:26:22;101804.44;;;10.56;58.51
67931;BME280;63902;52.000;5.954;2023-06-04T02:27:23;101793.97;;;10.51;58.17
67931;BME280;63902;52.000;5.954;2023-06-04T02:28:23;101797.50;;;10.51;58.27
67931;BME280;63902;52.000;5.954;2023-06-04T02:29:24;101799.22;;;10.52;58.76
67931;BME280;63902;52.000;5.954;2023-06-04T02:30:24;101796.63;;;10.51;58.48
67931;BME280;63902;52.000;5.954;2023-06-04T02:31:25;101804.56;;;10.51;58.68
67931;BME280;63902;52.000;5.954;2023-06-04T02:32:25;101797.56;;;10.48;58.96
67931;BME280;63902;52.000;5.954;2023-06-04T02:33:25;101794.94;;;10.47;59.45
67931;BME280;63902;52.000;5.954;2023-06-04T02:34:26;101794.94;;;10.47;58.55
67931;BME280;63902;52.000;5.954;2023-06-04T02:35:27;101798.50;;;10.46;58.67
67931;BME280;63902;52.000;5.954;2023-06-04T02:36:28;101798.63;;;10.41;58.90
67931;BME280;63902;52.000;5.954;2023-06-04T02:37:29;101801.19;;;10.44;58.77
67931;BME280;63902;52.000;5.954;2023-06-04T02:38:29;101800.31;;;10.44;58.62
67931;BME280;63902;52.000;5.954;2023-06-04T02:39:31;101791.50;;;10.43;58.79
67931;BME280;63902;52.000;5.954;2023-06-04T02:40:32;101795.94;;;10.43;58.86
67931;BME280;63902;52.000;5.954;2023-06-04T02:41:32;101799.47;;;10.43;58.59
67931;BME280;63902;52.000;5.954;2023-06-04T02:42:33;101785.44;;;10.38;58.42
67931;BME280;63902;52.000;5.954;2023-06-04T02:43:33;101783.84;;;10.31;58.73
67931;BME280;63902;52.000;5.954;2023-06-04T02:44:34;101794.31;;;10.37;58.73
67931;BME280;63902;52.000;5.954;2023-06-04T02:45:34;101793.38;;;10.38;58.55
67931;BME280;63902;52.000;5.954;2023-06-04T02:46:35;101789.00;;;10.37;58.74
67931;BME280;63902;52.000;5.954;2023-06-04T02:47:35;101785.66;;;10.29;58.66
67931;BME280;63902;52.000;5.954;2023-06-04T02:48:35;101792.53;;;10.36;58.54
67931;BME280;63902;52.000;5.954;2023-06-04T02:49:36;101796.13;;;10.35;58.90
67931;BME280;63902;52.000;5.954;2023-06-04T02:50:36;101795.25;;;10.35;58.97
67931;BME280;63902;52.000;5.954;2023-06-04T02:51:37;101792.63;;;10.33;58.89
67931;BME280;63902;52.000;5.954;2023-06-04T02:52:37;101784.88;;;10.24;58.64
67931;BME280;63902;52.000;5.954;2023-06-04T02:53:38;101799.78;;;10.31;58.87
67931;BME280;63902;52.000;5.954;2023-06-04T02:54:40;101804.19;;;10.30;59.13
67931;BME280;63902;52.000;5.954;2023-06-04T02:55:40;101797.25;;;10.23;59.21
67931;BME280;63902;52.000;5.954;2023-06-04T02:56:41;101799.84;;;10.25;58.83
67931;BME280;63902;52.000;5.954;2023-06-04T02:57:42;101797.19;;;10.26;59.18
67931;BME280;63902;52.000;5.954;2023-06-04T02:58:49;101799.00;;;10.24;59.33
67931;BME280;63902;52.000;5.954;2023-06-04T02:59:50;101793.75;;;10.23;59.27
67931;BME280;63902;52.000;5.954;2023-06-04T03:00:52;101793.75;;;10.21;59.70
67931;BME280;63902;52.000;5.954;2023-06-04T03:01:52;101794.72;;;10.19;59.51
67931;BME280;63902;52.000;5.954;2023-06-04T03:02:53;101792.97;;;10.18;59.81
67931;BME280;63902;52.000;5.954;2023-06-04T03:03:54;101779.03;;;10.09;59.88
67931;BME280;63902;52.000;5.954;2023-06-04T03:04:55;101792.19;;;10.14;60.21
67931;BME280;63902;52.000;5.954;2023-06-04T03:05:55;101790.41;;;10.13;60.36
67931;BME280;63902;52.000;5.954;2023-06-04T03:06:56;101797.56;;;10.11;60.20
67931;BME280;63902;52.000;5.954;2023-06-04T03:07:56;101794.91;;;10.11;60.13
67931;BME280;63902;52.000;5.954;2023-06-04T03:08:56;101785.19;;;10.10;60.29
67931;BME280;63902;52.000;5.954;2023-06-04T03:09:58;101789.63;;;10.09;60.58
67931;BME280;63902;52.000;5.954;2023-06-04T03:10:59;101794.06;;;10.09;60.80
67931;BME280;63902;52.000;5.954;2023-06-04T03:12:00;101787.91;;;10.08;60.01
67931;BME280;63902;52.000;5.954;2023-06-04T03:13:00;101785.31;;;10.05;60.04
67931;BME280;63902;52.000;5.954;2023-06-04T03:14:01;101785.34;;;10.04;60.15
67931;BME280;63902;52.000;5.954;2023-06-04T03:15:01;101787.97;;;10.05;60.11
67931;BME280;63902;52.000;5.954;2023-06-04T03:16:02;101786.19;;;10.06;59.92
67931;BME280;63902;52.000;5.954;2023-06-04T03:17:03;101791.50;;;10.04;60.01
67931;BME280;63902;52.000;5.954;2023-06-04T03:18:04;101787.13;;;10.03;60.32
67931;BME280;63902;52.000;5.954;2023-06-04T03:19:04;101788.03;;;10.02;60.24
67931;BME280;63902;52.000;5.954;2023-06-04T03:20:06;101790.63;;;10.05;60.41
67931;BME280;63902;52.000;5.954;2023-06-04T03:21:07;101780.03;;;10.04;60.25
67931;BME280;63902;52.000;5.954;2023-06-04T03:22:08;101787.13;;;10.03;60.18
67931;BME280;63902;52.000;5.954;2023-06-04T03:23:09;101781.84;;;10.02;60.12
67931;BME280;63902;52.000;5.954;2023-06-04T03:24:10;101793.38;;;10.01;60.33
67931;BME280;63902;52.000;5.954;2023-06-04T03:25:11;101787.22;;;9.99;60.13
67931;BME280;63902;52.000;5.954;2023-06-04T03:26:12;101781.22;;;9.92;60.37
67931;BME280;63902;52.000;5.954;2023-06-04T03:27:12;101789.94;;;9.97;60.25
67931;BME280;63902;52.000;5.954;2023-06-04T03:28:13;101793.47;;;9.96;60.82
67931;BME280;63902;52.000;5.954;2023-06-04T03:29:14;101791.75;;;9.95;60.51
67931;BME280;63902;52.000;5.954;2023-06-04T03:30:14;101788.16;;;9.96;60.85
67931;BME280;63902;52.000;5.954;2023-06-04T03:31:15;101782.16;;;9.90;60.56
67931;BME280;63902;52.000;5.954;2023-06-04T03:32:15;101786.38;;;9.98;61.07
67931;BME280;63902;52.000;5.954;2023-06-04T03:33:16;101789.00;;;9.98;60.72
67931;BME280;63902;52.000;5.954;2023-06-04T03:34:16;101790.75;;;9.99;60.59
67931;BME280;63902;52.000;5.954;2023-06-04T03:35:17;101787.28;;;9.97;60.96
67931;BME280;63902;52.000;5.954;2023-06-04T03:36:17;101791.66;;;9.98;61.09
67931;BME280;63902;52.000;5.954;2023-06-04T03:37:18;101789.94;;;9.97;60.81
67931;BME280;63902;52.000;5.954;2023-06-04T03:38:18;101788.31;;;9.90;60.83
67931;BME280;63902;52.000;5.954;2023-06-04T03:39:19;101776.00;;;9.88;61.24
67931;BME280;63902;52.000;5.954;2023-06-04T03:40:21;101785.50;;;9.96;60.91
67931;BME280;63902;52.000;5.954;2023-06-04T03:41:22;101775.06;;;9.90;60.80
67931;BME280;63902;52.000;5.954;2023-06-04T03:42:22;101788.16;;;9.98;61.36
67931;BME280;63902;52.000;5.954;2023-06-04T03:43:23;101795.25;;;9.96;61.05
67931;BME280;63902;52.000;5.954;2023-06-04T03:44:23;101790.00;;;9.94;61.49
67931;BME280;63902;52.000;5.954;2023-06-04T03:45:24;101786.50;;;9.92;61.06
67931;BME280;63902;52.000;5.954;2023-06-04T03:46:24;101790.94;;;9.92;61.19
67931;BME280;63902;52.000;5.954;2023-06-04T03:47:25;101788.31;;;9.90;61.59
67931;BME280;63902;52.000;5.954;2023-06-04T03:48:25;101785.69;;;9.89;61.18
67931;BME280;63902;52.000;5.954;2023-06-04T03:49:26;101793.63;;;9.89;61.08
67931;BME280;63902;52.000;5.954;2023-06-04T03:50:26;101787.47;;;9.88;61.13
67931;BME280;63902;52.000;5.954;2023-06-04T03:51:27;101792.81;;;9.86;61.84
67931;BME280;63902;52.000;5.954;2023-06-04T03:52:27;101790.13;;;9.88;61.62
67931;BME280;63902;52.000;5.954;2023-06-04T03:53:28;101786.59;;;9.88;61.48
67931;BME280;63902;52.000;5.954;2023-06-04T03:54:28;101791.88;;;9.89;61.25
67931;BME280;63902;52.000;5.954;2023-06-04T03:55:30;101797.19;;;9.89;61.31
67931;BME280;63902;52.000;5.954;2023-06-04T03:56:30;101802.56;;;9.86;61.48
67931;BME280;63902;52.000;5.954;2023-06-04T03:57:31;101794.59;;;9.86;61.42
67931;BME280;63902;52.000;5.954;2023-06-04T03:58:31;101799.00;;;9.87;61.56
67931;BME280;63902;52.000;5.954;2023-06-04T03:59:32;101792.00;;;9.83;61.33
67931;BME280;63902;52.000;5.954;2023-06-04T04:00:32;101791.97;;;9.84;62.21
67931;BME280;63902;52.000;5.954;2023-06-04T04:01:33;101809.59;;;9.87;62.13
67931;BME280;63902;52.000;5.954;2023-06-04T04:02:33;101795.50;;;9.85;62.77
67931;BME280;63902;52.000;5.954;2023-06-04T04:03:34;101803.38;;;9.88;62.49
67931;BME280;63902;52.000;5.954;2023-06-04T04:04:34;101796.34;;;9.87;61.91
67931;BME280;63902;52.000;5.954;2023-06-04T04:05:35;101799.06;;;9.82;62.09
67931;BME280;63902;52.000;5.954;2023-06-04T04:06:35;101806.09;;;9.85;62.03
67931;BME280;63902;52.000;5.954;2023-06-04T04:07:36;101810.53;;;9.83;62.54
67931;BME280;63902;52.000;5.954;2023-06-04T04:08:36;101803.50;;;9.83;62.04
67931;BME280;63902;52.000;5.954;2023-06-04T04:09:37;101799.13;;;9.81;61.82
67931;BME280;63902;52.000;5.954;2023-06-04T04:10:39;101807.03;;;9.82;62.63
67931;BME280;63902;52.000;5.954;2023-06-04T04:11:39;101806.16;;;9.82;62.27
67931;BME280;63902;52.000;5.954;2023-06-04T04:12:40;101815.91;;;9.81;62.28
67931;BME280;63902;52.000;5.954;2023-06-04T04:13:40;101807.09;;;9.79;62.72
67931;BME280;63902;52.000;5.954;2023-06-04T04:14:41;101793.25;;;9.67;63.15
67931;BME280;63902;52.000;5.954;2023-06-04T04:15:41;101810.66;;;9.78;63.06
67931;BME280;63902;52.000;5.954;2023-06-04T04:16:42;101823.00;;;9.79;63.26
67931;BME280;63902;52.000;5.954;2023-06-04T04:17:42;101814.19;;;9.79;62.95
67931;BME280;63902;52.000;5.954;2023-06-04T04:18:43;101801.94;;;9.73;62.63
67931;BME280;63902;52.000;5.954;2023-06-04T04:19:43;101813.25;;;9.81;62.95
67931;BME280;63902;52.000;5.954;2023-06-04T04:20:44;101815.03;;;9.81;63.24
67931;BME280;63902;52.000;5.954;2023-06-04T04:21:44;101813.25;;;9.80;62.78
67931;BME280;63902;52.000;5.954;2023-06-04T04:22:45;101811.53;;;9.79;62.96
67931;BME280;63902;52.000;5.954;2023-06-04T04:23:45;101810.69;;;9.77;63.79
67931;BME280;63902;52.000;5.954;2023-06-04T04:24:46;101810.69;;;9.77;63.38
67931;BME280;63902;52.000;5.954;2023-06-04T04:25:48;101816.81;;;9.79;62.91
67931;BME280;63902;52.000;5.954;2023-06-04T04:26:48;101820.31;;;9.81;63.77
67931;BME280;63902;52.000;5.954;2023-06-04T04:27:49;101808.88;;;9.79;63.51
67931;BME280;63902;52.000;5.954;2023-06-04T04:28:49;101816.75;;;9.82;63.31
67931;BME280;63902;52.000;5.954;2023-06-04T04:29:49;101807.06;;;9.81;63.10
67931;BME280;63902;52.000;5.954;2023-06-04T04:30:50;101802.66;;;9.80;63.24
67931;BME280;63902;52.000;5.954;2023-06-04T04:31:51;101820.25;;;9.84;63.39
67931;BME280;63902;52.000;5.954;2023-06-04T04:32:51;101817.56;;;9.85;63.33
67931;BME280;63902;52.000;5.954;2023-06-04T04:33:52;101808.75;;;9.85;63.01
67931;BME280;63902;52.000;5.954;2023-06-04T04:34:53;101817.47;;;9.89;62.90
67931;BME280;63902;52.000;5.954;2023-06-04T04:35:54;101813.91;;;9.91;62.93
67931;BME280;63902;52.000;5.954;2023-06-04T04:36:55;101820.03;;;9.93;63.63
67931;BME280;63902;52.000;5.954;2023-06-04T04:37:55;101819.09;;;9.97;64.72
67931;BME280;63902;52.000;5.954;2023-06-04T04:38:56;101815.44;;;10.01;64.01
67931;BME280;63902;52.000;5.954;2023-06-04T04:39:56;101814.53;;;10.02;63.36
67931;BME280;63902;52.000;5.954;2023-06-04T04:40:58;101820.66;;;10.06;64.11
67931;BME280;63902;52.000;5.954;2023-06-04T04:41:59;101813.50;;;10.09;63.55
67931;BME280;63902;52.000;5.954;2023-06-04T04:42:59;101811.69;;;10.12;63.09
67931;BME280;63902;52.000;5.954;2023-06-04T04:44:02;101809.84;;;10.14;63.08
67931;BME280;63902;52.000;5.954;2023-06-04T04:45:04;101811.56;;;10.16;63.18
67931;BME280;63902;52.000;5.954;2023-06-04T04:46:04;101808.88;;;10.18;63.41
67931;BME280;63902;52.000;5.954;2023-06-04T04:47:05;101818.53;;;10.20;63.31
67931;BME280;63902;52.000;5.954;2023-06-04T04:48:05;101816.75;;;10.21;63.30
67931;BME280;63902;52.000;5.954;2023-06-04T04:49:06;101813.19;;;10.22;63.77
67931;BME280;63902;52.000;5.954;2023-06-04T04:50:07;101817.59;;;10.23;63.60
67931;BME280;63902;52.000;5.954;2023-06-04T04:51:07;101817.56;;;10.24;63.27
67931;BME280;63902;52.000;5.954;2023-06-04T04:52:08;101814.91;;;10.24;63.08
67931;BME280;63902;52.000;5.954;2023-06-04T04:53:08;101794.78;;;10.16;63.12
67931;BME280;63902;52.000;5.954;2023-06-04T04:54:09;101813.91;;;10.32;63.51
67931;BME280;63902;52.000;5.954;2023-06-04T04:55:09;101818.25;;;10.34;63.26
67931;BME280;63902;52.000;5.954;2023-06-04T04:56:11;101814.75;;;10.34;62.82
67931;BME280;63902;52.000;5.954;2023-06-04T04:57:12;101812.88;;;10.37;63.47
67931;BME280;63902;52.000;5.954;2023-06-04T04:58:12;101803.16;;;10.36;63.10
67931;BME280;63902;52.000;5.954;2023-06-04T04:59:13;101811.88;;;10.41;62.95
67931;BME280;63902;52.000;5.954;2023-06-04T05:00:15;101813.63;;;10.42;63.20
67931;BME280;63902;52.000;5.954;2023-06-04T05:01:15;101808.34;;;10.42;63.20
67931;BME280;63902;52.000;5.954;2023-06-04T05:02:16;101809.16;;;10.44;64.00
67931;BME280;63902;52.000;5.954;2023-06-04T05:03:16;101811.78;;;10.44;63.30
67931;BME280;63902;52.000;5.954;2023-06-04T05:04:17;101813.47;;;10.48;63.06
67931;BME280;63902;52.000;5.954;2023-06-04T05:05:17;101803.84;;;10.44;63.93
67931;BME280;63902;52.000;5.954;2023-06-04T05:06:18;101808.00;;;10.55;63.38
67931;BME280;63902;52.000;5.954;2023-06-04T05:07:18;101807.09;;;10.56;63.11
67931;BME280;63902;52.000;5.954;2023-06-04T05:08:19;101805.34;;;10.56;62.83
67931;BME280;63902;52.000;5.954;2023-06-04T05:09:19;101812.28;;;10.62;62.77
67931;BME280;63902;52.000;5.954;2023-06-04T05:10:20;101813.09;;;10.64;62.68
67931;BME280;63902;52.000;5.954;2023-06-04T05:11:22;101819.22;;;10.66;63.70
67931;BME280;63902;52.000;5.954;2023-06-04T05:12:24;101821.81;;;10.69;63.26
67931;BME280;63902;52.000;5.954;2023-06-04T05:13:25;101816.41;;;10.72;63.00
67931;BME280;63902;52.000;5.954;2023-06-04T05:14:25;101810.22;;;10.73;62.77
67931;BME280;63902;52.000;5.954;2023-06-04T05:15:26;101808.34;;;10.77;62.67
67931;BME280;63902;52.000;5.954;2023-06-04T05:16:27;101813.56;;;10.80;62.89
67931;BME280;63902;52.000;5.954;2023-06-04T05:17:27;101815.34;;;10.79;62.65
67931;BME280;63902;52.000;5.954;2023-06-04T05:18:28;101813.47;;;10.83;62.57
67931;BME280;63902;52.000;5.954;2023-06-04T05:19:28;101813.38;;;10.87;62.65
67931;BME280;63902;52.000;5.954;2023-06-04T05:20:29;101810.72;;;10.87;62.94